createdAt,value
2019-05-17T00:01:16.638Z,10.49
2019-05-17T00:03:56.396Z,10.37
2019-05-17T00:06:27.534Z,10.40
2019-05-17T00:08:58.456Z,10.29
2019-05-17T00:11:28.981Z,10.35
2019-05-17T00:13:59.726Z,10.36
2019-05-17T00:16:34.173Z,10.41
2019-05-17T00:19:04.775Z,10.45
2019-05-17T00:21:38.933Z,10.47
2019-05-17T00:24:09.735Z,10.41
2019-05-17T00:26:40.564Z,10.41
2019-05-17T00:29:11.224Z,10.40
2019-05-17T00:31:43.443Z,10.39
2019-05-17T00:34:16.774Z,10.42
2019-05-17T00:36:47.816Z,10.40
2019-05-17T00:39:18.545Z,10.41
2019-05-17T00:41:49.244Z,10.39
2019-05-17T00:44:19.929Z,10.31
2019-05-17T00:46:50.509Z,10.28
2019-05-17T00:49:22.093Z,10.37
2019-05-17T00:51:53.782Z,10.40
2019-05-17T00:54:26.783Z,10.47
2019-05-17T00:57:03.404Z,10.43
2019-05-17T00:59:34.171Z,10.41
2019-05-17T01:02:06.864Z,10.40
2019-05-17T01:04:37.338Z,10.37
2019-05-17T01:07:08.026Z,10.37
2019-05-17T01:09:38.534Z,10.37
2019-05-17T01:12:10.313Z,10.42
2019-05-17T01:14:41.076Z,10.42
2019-05-17T01:17:11.666Z,10.45
2019-05-17T01:19:42.244Z,10.40
2019-05-17T01:22:13.974Z,10.40
2019-05-17T01:24:46.295Z,10.37
2019-05-17T01:27:18.005Z,10.40
2019-05-17T01:29:48.610Z,10.29
2019-05-17T01:32:19.315Z,10.20
2019-05-17T01:34:56.311Z,10.27
2019-05-17T01:37:27.687Z,10.22
2019-05-17T01:39:58.488Z,10.27
2019-05-17T01:42:29.269Z,10.22
2019-05-17T01:45:09.580Z,10.27
2019-05-17T01:47:40.260Z,10.30
2019-05-17T01:50:11.494Z,10.30
2019-05-17T01:52:42.114Z,10.30
2019-05-17T01:55:12.794Z,10.30
2019-05-17T01:57:43.513Z,10.35
2019-05-17T02:00:17.760Z,10.27
2019-05-17T02:02:53.554Z,10.32
2019-05-17T02:05:27.512Z,10.31
2019-05-17T02:08:17.088Z,10.31
2019-05-17T02:10:48.003Z,10.36
2019-05-17T02:13:20.572Z,10.32
2019-05-17T02:15:51.209Z,10.28
2019-05-17T02:18:22.825Z,10.31
2019-05-17T02:20:53.539Z,10.26
2019-05-17T02:23:24.363Z,10.20
2019-05-17T02:25:57.187Z,10.20
2019-05-17T02:28:28.995Z,10.22
2019-05-17T02:31:03.574Z,10.27
2019-05-17T02:33:37.349Z,10.24
2019-05-17T02:36:08.036Z,10.25
2019-05-17T02:38:38.723Z,10.18
2019-05-17T02:41:09.401Z,10.26
2019-05-17T02:43:43.181Z,10.19
2019-05-17T02:46:13.909Z,10.22
2019-05-17T02:48:44.659Z,10.19
2019-05-17T02:51:15.419Z,10.12
2019-05-17T02:53:46.097Z,10.11
2019-05-17T02:56:16.781Z,10.14
2019-05-17T02:58:47.529Z,10.19
2019-05-17T03:01:19.270Z,9.98
2019-05-17T03:03:55.819Z,10.04
2019-05-17T03:06:26.580Z,10.14
2019-05-17T03:08:57.149Z,10.09
2019-05-17T03:11:27.933Z,10.14
2019-05-17T03:13:58.522Z,10.09
2019-05-17T03:16:29.371Z,10.11
2019-05-17T03:19:03.803Z,10.12
2019-05-17T03:21:33.721Z,10.12
2019-05-17T03:24:04.957Z,10.11
2019-05-17T03:26:35.624Z,10.04
2019-05-17T03:29:06.209Z,10.09
2019-05-17T03:31:44.812Z,10.10
2019-05-17T03:34:16.589Z,10.11
2019-05-17T03:36:46.654Z,10.16
2019-05-17T03:39:16.610Z,10.19
2019-05-17T03:41:47.383Z,10.20
2019-05-17T03:44:25.150Z,10.17
2019-05-17T03:46:55.845Z,10.14
2019-05-17T03:49:26.507Z,10.18
2019-05-17T03:51:57.202Z,10.16
2019-05-17T03:54:28.993Z,10.20
2019-05-17T03:57:02.675Z,10.25
2019-05-17T03:59:33.699Z,10.18
2019-05-17T04:02:04.431Z,10.23
2019-05-17T04:04:35.112Z,10.18
2019-05-17T04:07:17.313Z,10.24
2019-05-17T04:09:48.048Z,10.28
2019-05-17T04:12:18.767Z,10.30
2019-05-17T04:14:53.341Z,10.25
2019-05-17T04:17:23.110Z,10.26
2019-05-17T04:19:55.850Z,10.33
2019-05-17T04:22:33.295Z,10.23
2019-05-17T04:25:05.265Z,10.31
2019-05-17T04:27:35.888Z,10.40
2019-05-17T04:30:07.978Z,10.40
2019-05-17T04:32:38.774Z,10.37
2019-05-17T04:35:17.302Z,10.36
2019-05-17T04:37:47.889Z,10.39
2019-05-17T04:40:18.699Z,10.41
2019-05-17T04:42:52.440Z,10.42
2019-05-17T04:45:28.512Z,10.40
2019-05-17T04:47:59.245Z,10.41
2019-05-17T04:50:33.251Z,10.42
2019-05-17T04:53:05.386Z,10.43
2019-05-17T04:55:35.938Z,10.43
2019-05-17T04:58:16.830Z,10.48
2019-05-17T05:00:47.412Z,10.47
2019-05-17T05:03:18.146Z,10.50
2019-05-17T05:05:48.824Z,10.49
2019-05-17T05:08:22.433Z,10.55
2019-05-17T05:10:53.690Z,10.55
2019-05-17T05:13:24.665Z,10.49
2019-05-17T05:15:55.211Z,10.56
2019-05-17T05:18:25.893Z,10.61
2019-05-17T05:21:03.371Z,10.46
2019-05-17T05:23:33.055Z,10.62
2019-05-17T05:26:03.835Z,10.60
2019-05-17T05:28:34.512Z,10.32
2019-05-17T05:31:05.091Z,10.24
2019-05-17T05:33:36.942Z,10.36
2019-05-17T05:36:17.562Z,10.50
2019-05-17T05:38:48.280Z,10.29
2019-05-17T05:41:19.040Z,10.29
2019-05-17T05:43:49.785Z,10.25
2019-05-17T05:46:22.611Z,10.41
2019-05-17T05:48:53.266Z,10.46
2019-05-17T05:51:23.998Z,10.36
2019-05-17T05:53:54.930Z,10.41
2019-05-17T05:56:25.679Z,10.36
2019-05-17T05:58:56.339Z,10.38
2019-05-17T06:01:27.033Z,10.38
2019-05-17T06:03:58.740Z,10.58
2019-05-17T06:06:29.338Z,10.77
2019-05-17T06:09:05.973Z,10.83
2019-05-17T06:11:36.576Z,10.77
2019-05-17T06:14:13.296Z,10.70
2019-05-17T06:16:43.877Z,10.79
2019-05-17T06:19:14.500Z,10.90
2019-05-17T06:22:02.784Z,10.87
2019-05-17T06:24:33.591Z,10.97
2019-05-17T06:27:04.632Z,10.92
2019-05-17T06:29:41.366Z,10.90
2019-05-17T06:32:11.888Z,10.85
2019-05-17T06:34:43.688Z,10.95
2019-05-17T06:37:27.441Z,11.01
2019-05-17T06:39:59.060Z,10.96
2019-05-17T06:42:40.364Z,10.81
2019-05-17T06:45:06.899Z,10.55
2019-05-17T06:47:37.506Z,10.68
2019-05-17T06:50:08.242Z,10.85
2019-05-17T06:52:38.915Z,10.79
2019-05-17T06:55:12.806Z,10.71
2019-05-17T06:57:45.991Z,10.73
2019-05-17T07:00:20.835Z,10.74
2019-05-17T07:02:53.448Z,10.69
2019-05-17T07:05:25.869Z,10.55
2019-05-17T07:07:56.470Z,10.64
2019-05-17T07:10:27.299Z,10.54
2019-05-17T07:12:59.630Z,10.64
2019-05-17T07:15:43.388Z,10.52
2019-05-17T07:18:03.507Z,10.72
2019-05-17T07:20:34.551Z,10.83
2019-05-17T07:23:05.134Z,10.80
2019-05-17T07:25:35.820Z,10.72
2019-05-17T07:28:06.504Z,10.69
2019-05-17T07:30:40.038Z,10.69
2019-05-17T07:33:11.070Z,10.75
2019-05-17T07:35:41.753Z,10.85
2019-05-17T07:38:12.434Z,10.92
2019-05-17T07:40:43.003Z,10.83
2019-05-17T07:43:14.839Z,10.70
2019-05-17T07:45:45.788Z,10.72
2019-05-17T07:48:16.519Z,10.94
2019-05-17T07:50:47.176Z,11.00
2019-05-17T07:53:19.781Z,11.05
2019-05-17T07:55:50.610Z,10.80
2019-05-17T07:58:21.622Z,10.99
2019-05-17T08:00:52.459Z,11.01
2019-05-17T08:03:30.381Z,11.15
2019-05-17T08:06:03.224Z,11.19
2019-05-17T08:08:34.003Z,11.25
2019-05-17T08:11:06.713Z,11.37
2019-05-17T08:13:39.682Z,11.38
2019-05-17T08:16:10.410Z,11.45
2019-05-17T08:18:41.104Z,11.42
2019-05-17T08:21:11.703Z,11.60
2019-05-17T08:23:42.385Z,11.67
2019-05-17T08:26:13.075Z,11.55
2019-05-17T08:28:43.714Z,11.45
2019-05-17T08:31:14.330Z,11.40
2019-05-17T08:33:45.064Z,11.43
2019-05-17T08:36:16.764Z,11.51
2019-05-17T08:38:47.335Z,11.58
2019-05-17T08:41:20.623Z,11.61
2019-05-17T08:43:51.450Z,11.71
2019-05-17T08:46:22.346Z,11.42
2019-05-17T08:49:09.788Z,11.43
2019-05-17T08:51:40.584Z,11.35
2019-05-17T08:54:11.277Z,11.36
2019-05-17T08:56:41.951Z,11.33
2019-05-17T08:59:12.614Z,11.28
2019-05-17T09:01:43.289Z,11.43
2019-05-17T09:04:13.998Z,11.48
2019-05-17T09:06:50.462Z,11.35
2019-05-17T09:09:21.269Z,11.32
2019-05-17T09:11:51.806Z,11.49
2019-05-17T09:14:22.407Z,11.51
2019-05-17T09:17:00.635Z,11.75
2019-05-17T09:19:31.310Z,11.66
2019-05-17T09:22:01.974Z,11.68
2019-05-17T09:24:32.685Z,11.59
2019-05-17T09:27:03.378Z,11.53
2019-05-17T09:29:40.205Z,11.71
2019-05-17T09:32:10.416Z,11.73
2019-05-17T09:34:41.090Z,11.89
2019-05-17T09:37:14.569Z,11.98
2019-05-17T09:39:44.105Z,12.00
2019-05-17T09:42:14.823Z,12.11
2019-05-17T09:44:46.459Z,11.76
2019-05-17T09:47:20.448Z,11.73
2019-05-17T09:49:50.417Z,11.69
2019-05-17T09:52:21.106Z,11.51
2019-05-17T09:54:51.690Z,11.65
2019-05-17T09:57:22.307Z,11.76
2019-05-17T09:59:55.905Z,11.63
2019-05-17T10:02:25.276Z,11.68
2019-05-17T10:05:07.227Z,11.57
2019-05-17T10:07:40.393Z,11.68
2019-05-17T10:10:10.903Z,11.63
2019-05-17T10:12:44.562Z,11.73
2019-05-17T10:15:16.194Z,11.92
2019-05-17T10:17:46.845Z,11.72
2019-05-17T10:20:20.017Z,11.69
2019-05-17T10:22:50.755Z,11.70
2019-05-17T10:25:21.387Z,11.71
2019-05-17T10:27:52.176Z,11.80
2019-05-17T10:30:22.846Z,11.98
2019-05-17T10:32:53.516Z,12.12
2019-05-17T10:35:24.229Z,11.95
2019-05-17T10:37:54.938Z,11.96
2019-05-17T10:40:25.669Z,12.02
2019-05-17T10:42:56.250Z,12.15
2019-05-17T10:45:26.825Z,12.23
2019-05-17T10:47:57.415Z,12.02
2019-05-17T10:50:29.778Z,12.03
2019-05-17T10:53:00.770Z,12.15
2019-05-17T10:55:31.517Z,11.92
2019-05-17T10:58:02.174Z,11.80
2019-05-17T11:00:32.853Z,11.86
2019-05-17T11:03:03.655Z,11.98
2019-05-17T11:05:34.337Z,11.98
2019-05-17T11:08:05.067Z,12.03
2019-05-17T11:10:35.810Z,12.14
2019-05-17T11:13:08.539Z,12.02
2019-05-17T11:15:39.136Z,12.06
2019-05-17T11:18:09.933Z,11.98
2019-05-17T11:20:40.596Z,11.94
2019-05-17T11:23:11.219Z,11.93
2019-05-17T11:25:45.880Z,11.85
2019-05-17T11:28:17.183Z,11.84
2019-05-17T11:30:47.770Z,11.93
2019-05-17T11:33:19.497Z,11.99
2019-05-17T11:35:50.135Z,12.00
2019-05-17T11:38:20.899Z,12.09
2019-05-17T11:40:54.587Z,12.18
2019-05-17T11:43:25.235Z,12.15
2019-05-17T11:45:55.921Z,12.01
2019-05-17T11:48:28.566Z,11.88
2019-05-17T11:51:00.165Z,11.92
2019-05-17T11:53:30.860Z,11.88
2019-05-17T11:56:02.758Z,11.82
2019-05-17T11:58:33.278Z,11.77
2019-05-17T12:01:04.010Z,11.84
2019-05-17T12:03:40.251Z,11.84
2019-05-17T12:06:22.998Z,11.95
2019-05-17T12:08:53.744Z,11.96
2019-05-17T12:11:27.356Z,11.92
2019-05-17T12:13:58.028Z,12.04
2019-05-17T12:16:28.593Z,11.95
2019-05-17T12:19:00.130Z,11.81
2019-05-17T12:21:30.865Z,11.76
2019-05-17T12:24:02.453Z,11.72
2019-05-17T12:26:33.131Z,11.71
2019-05-17T12:29:04.802Z,11.79
2019-05-17T12:31:37.524Z,11.92
2019-05-17T12:34:11.249Z,11.87
2019-05-17T12:36:41.902Z,11.91
2019-05-17T12:39:13.640Z,11.82
2019-05-17T12:41:44.343Z,11.89
2019-05-17T12:44:14.955Z,11.91
2019-05-17T12:46:45.711Z,12.05
2019-05-17T12:49:19.518Z,11.96
2019-05-17T12:51:50.003Z,12.02
2019-05-17T12:54:21.657Z,12.12
2019-05-17T12:56:53.317Z,12.28
2019-05-17T12:59:24.101Z,12.34
2019-05-17T13:01:54.813Z,12.27
2019-05-17T13:04:29.472Z,12.31
2019-05-17T13:07:00.152Z,12.39
2019-05-17T13:09:30.842Z,12.20
2019-05-17T13:12:01.465Z,12.32
2019-05-17T13:14:34.153Z,12.14
2019-05-17T13:17:11.547Z,12.33
2019-05-17T13:19:42.256Z,12.22
2019-05-17T13:22:13.018Z,12.20
2019-05-17T13:24:43.831Z,12.11
2019-05-17T13:27:14.481Z,12.20
2019-05-17T13:29:45.228Z,12.23
2019-05-17T13:32:15.925Z,12.17
2019-05-17T13:34:46.626Z,12.23
2019-05-17T13:37:24.276Z,12.25
2019-05-17T13:39:54.877Z,12.29
2019-05-17T13:42:31.519Z,12.29
2019-05-17T13:45:08.588Z,12.17
2019-05-17T13:47:39.168Z,12.23
2019-05-17T13:50:11.403Z,12.24
2019-05-17T13:52:42.138Z,12.32
2019-05-17T13:55:17.694Z,12.35
2019-05-17T13:57:48.337Z,12.36
2019-05-17T14:00:19.177Z,12.30
2019-05-17T14:02:49.850Z,12.24
2019-05-17T14:05:20.575Z,12.37
2019-05-17T14:07:53.154Z,12.45
2019-05-17T14:10:27.254Z,12.45
2019-05-17T14:12:56.239Z,12.53
2019-05-17T14:15:30.411Z,12.44
2019-05-17T14:18:01.100Z,12.52
2019-05-17T14:20:31.956Z,12.57
2019-05-17T14:23:03.129Z,12.60
2019-05-17T14:25:33.892Z,12.62
2019-05-17T14:28:11.840Z,12.69
2019-05-17T14:30:42.537Z,12.66
2019-05-17T14:33:13.313Z,12.64
2019-05-17T14:35:44.152Z,12.60
2019-05-17T14:38:14.857Z,12.61
2019-05-17T14:41:05.863Z,12.60
2019-05-17T14:43:19.032Z,12.61
2019-05-17T14:45:49.656Z,12.52
2019-05-17T14:48:20.308Z,12.57
2019-05-17T14:50:51.945Z,12.60
2019-05-17T14:53:22.567Z,12.59
2019-05-17T14:55:53.439Z,12.67
2019-05-17T14:58:31.978Z,12.68
2019-05-17T15:01:04.073Z,12.68
2019-05-17T15:03:43.027Z,12.68
2019-05-17T15:06:13.811Z,12.69
2019-05-17T15:08:44.570Z,12.62
2019-05-17T15:11:17.320Z,12.64
2019-05-17T15:13:48.907Z,12.67
2019-05-17T15:16:21.661Z,12.71
2019-05-17T15:18:52.376Z,12.67
2019-05-17T15:21:23.392Z,12.68
2019-05-17T15:23:56.135Z,12.72
2019-05-17T15:26:28.863Z,12.74
2019-05-17T15:29:05.507Z,12.75
2019-05-17T15:31:36.283Z,12.79
2019-05-17T15:34:06.939Z,12.75
2019-05-17T15:36:40.703Z,12.81
2019-05-17T15:39:13.323Z,12.79
2019-05-17T15:41:44.060Z,12.79
2019-05-17T15:44:14.755Z,12.80
2019-05-17T15:46:50.379Z,12.79
2019-05-17T15:49:20.986Z,12.79
2019-05-17T15:51:51.715Z,12.69
2019-05-17T15:54:22.306Z,12.71
2019-05-17T15:56:52.907Z,12.76
2019-05-17T15:59:24.547Z,12.80
2019-05-17T16:01:55.312Z,12.86
2019-05-17T16:04:27.960Z,12.86
2019-05-17T16:06:58.764Z,12.89
2019-05-17T16:09:36.300Z,12.97
2019-05-17T16:12:07.072Z,12.92
2019-05-17T16:14:37.744Z,12.94
2019-05-17T16:17:08.508Z,12.90
2019-05-17T16:19:39.200Z,12.92
2019-05-17T16:22:09.963Z,12.91
2019-05-17T16:24:41.685Z,12.91
2019-05-17T16:27:15.431Z,12.95
2019-05-17T16:29:46.126Z,12.94
2019-05-17T16:32:16.884Z,12.97
2019-05-17T16:34:50.847Z,13.04
2019-05-17T16:37:21.542Z,13.01
2019-05-17T16:39:52.202Z,13.03
2019-05-17T16:42:24.876Z,13.06
2019-05-17T16:44:55.540Z,13.07
2019-05-17T16:47:28.272Z,13.06
2019-05-17T16:49:58.901Z,13.04
2019-05-17T16:52:29.574Z,13.05
2019-05-17T16:55:00.337Z,13.05
2019-05-17T16:57:31.979Z,13.08
2019-05-17T17:00:02.904Z,13.12
2019-05-17T17:02:33.577Z,13.14
2019-05-17T17:05:04.254Z,13.17
2019-05-17T17:07:39.295Z,13.20
2019-05-17T17:10:15.079Z,13.18
2019-05-17T17:12:45.742Z,13.23
2019-05-17T17:15:16.657Z,13.22
2019-05-17T17:17:52.436Z,13.27
2019-05-17T17:20:23.056Z,13.30
2019-05-17T17:22:53.885Z,13.31
2019-05-17T17:25:25.485Z,13.28
2019-05-17T17:27:59.724Z,13.31
2019-05-17T17:30:35.366Z,13.31
2019-05-17T17:33:06.060Z,13.33
2019-05-17T17:35:36.667Z,13.37
2019-05-17T17:38:07.440Z,13.38
2019-05-17T17:40:40.101Z,13.41
2019-05-17T17:43:10.895Z,13.44
2019-05-17T17:45:41.600Z,13.47
2019-05-17T17:48:13.206Z,13.43
2019-05-17T17:50:44.456Z,13.45
2019-05-17T17:53:15.309Z,13.44
2019-05-17T17:55:45.965Z,13.47
2019-05-17T17:58:16.730Z,13.50
2019-05-17T18:00:49.447Z,13.57
2019-05-17T18:03:23.250Z,13.57
2019-05-17T18:05:53.775Z,13.55
2019-05-17T18:08:27.964Z,13.56
2019-05-17T18:10:58.799Z,13.58
2019-05-17T18:13:29.486Z,13.53
2019-05-17T18:16:08.575Z,13.50
2019-05-17T18:18:40.087Z,13.51
2019-05-17T18:21:10.795Z,13.51
2019-05-17T18:23:42.501Z,13.52
2019-05-17T18:26:15.137Z,13.51
2019-05-17T18:28:45.920Z,13.51
2019-05-17T18:31:16.577Z,13.50
2019-05-17T18:33:47.340Z,13.49
2019-05-17T18:36:18.940Z,13.47
2019-05-17T18:39:05.178Z,13.47
2019-05-17T18:41:39.500Z,13.49
2019-05-17T18:44:10.186Z,13.47
2019-05-17T18:46:40.863Z,13.45
2019-05-17T18:49:11.564Z,13.47
2019-05-17T18:51:42.233Z,13.45
2019-05-17T18:54:13.500Z,13.43
2019-05-17T18:56:44.178Z,13.43
2019-05-17T18:59:16.862Z,13.44
2019-05-17T19:01:47.598Z,13.43
2019-05-17T19:04:20.241Z,13.41
2019-05-17T19:06:52.091Z,13.40
2019-05-17T19:09:23.210Z,13.40
2019-05-17T19:11:54.883Z,13.41
2019-05-17T19:14:25.530Z,13.41
2019-05-17T19:16:56.551Z,13.41
2019-05-17T19:19:28.386Z,13.39
2019-05-17T19:22:02.197Z,13.38
2019-05-17T19:24:32.861Z,13.34
2019-05-17T19:27:03.465Z,13.34
2019-05-17T19:29:34.225Z,13.31
2019-05-17T19:32:07.656Z,13.29
2019-05-17T19:34:39.358Z,13.30
2019-05-17T19:37:12.131Z,13.31
2019-05-17T19:39:43.029Z,13.27
2019-05-17T19:42:15.984Z,13.25
2019-05-17T19:44:58.750Z,13.23
2019-05-17T19:47:32.059Z,13.22
2019-05-17T19:50:02.937Z,13.24
2019-05-17T19:52:33.612Z,13.20
2019-05-17T19:55:14.834Z,13.20
2019-05-17T19:57:45.626Z,13.19
2019-05-17T20:00:24.335Z,13.15
2019-05-17T20:02:56.031Z,13.14
2019-05-17T20:05:26.745Z,13.15
2019-05-17T20:07:57.614Z,13.14
2019-05-17T20:10:31.624Z,13.09
2019-05-17T20:13:12.747Z,13.08
2019-05-17T20:16:06.156Z,13.04
2019-05-17T20:18:37.078Z,13.02
2019-05-17T20:21:14.227Z,12.99
2019-05-17T20:23:51.626Z,13.01
2019-05-17T20:26:25.789Z,12.99
2019-05-17T20:28:56.843Z,12.97
2019-05-17T20:32:01.141Z,12.98
2019-05-17T20:34:32.169Z,12.99
2019-05-17T20:37:02.930Z,12.97
2019-05-17T20:39:34.618Z,12.95
2019-05-17T20:42:05.316Z,12.94
2019-05-17T20:44:36.260Z,12.93
2019-05-17T20:47:06.939Z,12.91
2019-05-17T20:49:48.151Z,12.90
2019-05-17T20:52:19.914Z,12.87
2019-05-17T20:54:52.680Z,12.84
2019-05-17T20:57:23.321Z,12.84
2019-05-17T20:59:54.057Z,12.82
2019-05-17T21:02:24.913Z,12.80
2019-05-17T21:04:55.872Z,12.79
2019-05-17T21:07:26.556Z,12.79
2019-05-17T21:09:58.444Z,12.78
2019-05-17T21:12:29.526Z,12.75
2019-05-17T21:15:00.384Z,12.78
2019-05-17T21:17:32.477Z,12.76
2019-05-17T21:20:03.274Z,12.72
2019-05-17T21:22:34.189Z,12.72
2019-05-17T21:25:05.178Z,12.68
2019-05-17T21:27:36.095Z,12.68
2019-05-17T21:30:07.580Z,12.68
2019-05-17T21:32:38.435Z,12.67
2019-05-17T21:35:11.358Z,12.64
2019-05-17T21:37:42.182Z,12.63
2019-05-17T21:40:13.339Z,12.66
2019-05-17T21:42:44.445Z,12.64
2019-05-17T21:45:15.494Z,12.64
2019-05-17T21:47:46.393Z,12.62
2019-05-17T21:50:17.399Z,12.64
2019-05-17T21:52:48.415Z,12.60
2019-05-17T21:55:19.232Z,12.59
2019-05-17T21:57:50.395Z,12.57
2019-05-17T22:01:00.373Z,12.57
2019-05-17T22:03:33.775Z,12.59
2019-05-17T22:06:04.857Z,12.53
2019-05-17T22:08:35.774Z,12.57
2019-05-17T22:11:06.787Z,12.56
2019-05-17T22:13:37.635Z,12.51
2019-05-17T22:16:19.138Z,12.51
2019-05-17T22:18:42.935Z,12.50
2019-05-17T22:21:14.473Z,12.47
2019-05-17T22:23:47.260Z,12.49
2019-05-17T22:26:18.080Z,12.49
2019-05-17T22:28:50.183Z,12.50
2019-05-17T22:31:21.199Z,12.50
2019-05-17T22:33:52.366Z,12.50
2019-05-17T22:36:23.960Z,12.55
2019-05-17T22:38:55.054Z,12.56
2019-05-17T22:41:25.782Z,12.56
2019-05-17T22:43:56.586Z,12.57
2019-05-17T22:46:35.586Z,12.56
2019-05-17T22:48:59.786Z,12.53
2019-05-17T22:51:30.381Z,12.52
2019-05-17T22:54:01.160Z,12.49
2019-05-17T22:56:32.788Z,12.50
2019-05-17T22:59:03.839Z,12.48
2019-05-17T23:01:34.921Z,12.46
2019-05-17T23:04:05.746Z,12.43
2019-05-17T23:06:36.413Z,12.39
2019-05-17T23:09:07.464Z,12.38
2019-05-17T23:11:38.079Z,12.33
2019-05-17T23:14:08.690Z,12.33
2019-05-17T23:16:51.234Z,12.27
2019-05-17T23:19:11.953Z,12.15
2019-05-17T23:21:42.626Z,12.17
2019-05-17T23:24:14.279Z,12.23
2019-05-17T23:26:46.066Z,12.19
2019-05-17T23:29:41.355Z,12.14
2019-05-17T23:32:12.098Z,12.10
2019-05-17T23:34:42.733Z,12.06
2019-05-17T23:37:13.303Z,12.06
2019-05-17T23:39:43.921Z,12.05
2019-05-17T23:42:14.661Z,12.02
2019-05-17T23:44:45.291Z,12.07
2019-05-17T23:47:16.073Z,12.04
2019-05-17T23:49:46.784Z,11.93
2019-05-17T23:52:17.417Z,11.88
2019-05-17T23:54:50.095Z,11.91
2019-05-17T23:57:22.717Z,11.92
2019-05-17T23:59:53.788Z,11.87
